createdAt,value
2018-05-23T00:00:03.225Z,82.37
2018-05-23T00:01:26.452Z,82.57
2018-05-23T00:02:53.754Z,82.94
2018-05-23T00:04:25.199Z,83.14
2018-05-23T00:05:48.400Z,83.01
2018-05-23T00:07:19.922Z,83.27
2018-05-23T00:08:43.243Z,83.65
2018-05-23T00:10:14.614Z,84.02
2018-05-23T00:11:37.933Z,83.99
2018-05-23T00:13:05.368Z,84.00
2018-05-23T00:14:36.647Z,83.83
2018-05-23T00:16:00.062Z,83.58
2018-05-23T00:17:27.439Z,83.19
2018-05-23T00:18:58.668Z,82.95
2018-05-23T00:20:25.767Z,82.90
2018-05-23T00:21:53.276Z,82.98
2018-05-23T00:23:20.595Z,82.88
2018-05-23T00:24:44.038Z,82.78
2018-05-23T00:26:15.201Z,82.93
2018-05-23T00:27:38.501Z,83.44
2018-05-23T00:29:09.856Z,83.47
2018-05-23T00:30:33.087Z,83.27
2018-05-23T00:32:04.459Z,82.73
2018-05-23T00:33:27.747Z,82.55
2018-05-23T00:34:55.028Z,82.45
2018-05-23T00:36:22.384Z,82.23
2018-05-23T00:37:53.761Z,82.04
2018-05-23T00:39:17.009Z,82.25
2018-05-23T00:40:44.514Z,82.38
2018-05-23T00:42:15.669Z,82.50
2018-05-23T00:43:43.001Z,82.89
2018-05-23T00:45:10.269Z,82.91
2018-05-23T00:46:33.512Z,82.89
2018-05-23T00:48:04.993Z,83.27
2018-05-23T00:49:28.185Z,83.57
2018-05-23T00:50:55.720Z,84.03
2018-05-23T00:52:23.104Z,84.35
2018-05-23T00:53:50.341Z,84.14
2018-05-23T00:55:17.662Z,83.82
2018-05-23T00:56:45.068Z,83.32
2018-05-23T00:58:12.505Z,83.05
2018-05-23T00:59:43.972Z,83.71
2018-05-23T01:01:11.141Z,83.76
2018-05-23T01:02:34.361Z,83.69
2018-05-23T01:04:01.606Z,83.66
2018-05-23T01:05:28.906Z,83.39
2018-05-23T01:06:55.895Z,83.42
2018-05-23T01:08:27.301Z,83.07
2018-05-23T01:09:50.545Z,82.82
2018-05-23T01:11:22.922Z,83.31
2018-05-23T01:12:45.304Z,83.17
2018-05-23T01:14:12.376Z,83.23
2018-05-23T01:15:39.731Z,83.13
2018-05-23T01:17:07.146Z,83.01
2018-05-23T01:18:34.556Z,83.09
2018-05-23T01:20:01.815Z,83.34
2018-05-23T01:21:29.277Z,83.65
2018-05-23T01:22:56.452Z,84.11
2018-05-23T01:24:23.799Z,84.11
2018-05-23T01:25:54.994Z,83.72
2018-05-23T01:27:22.173Z,83.99
2018-05-23T01:28:45.579Z,84.09
2018-05-23T01:30:12.898Z,83.83
2018-05-23T01:31:40.328Z,84.13
2018-05-23T01:33:07.754Z,84.26
2018-05-23T01:34:35.191Z,84.48
2018-05-23T01:36:02.507Z,84.23
2018-05-23T01:37:29.879Z,83.92
2018-05-23T01:38:56.994Z,83.97
2018-05-23T01:40:24.315Z,84.38
2018-05-23T01:41:51.528Z,84.62
2018-05-23T01:43:18.831Z,84.51
2018-05-23T01:44:46.203Z,84.89
2018-05-23T01:46:17.743Z,84.73
2018-05-23T01:47:41.177Z,84.71
2018-05-23T01:49:08.488Z,84.11
2018-05-23T01:50:35.872Z,84.54
2018-05-23T01:52:03.327Z,84.98
2018-05-23T01:53:34.771Z,85.09
2018-05-23T01:55:01.839Z,85.11
2018-05-23T01:56:29.349Z,85.14
2018-05-23T01:57:56.363Z,85.38
2018-05-23T01:59:23.478Z,85.41
2018-05-23T02:00:46.773Z,85.36
2018-05-23T02:02:18.015Z,85.51
2018-05-23T02:03:41.055Z,86.18
2018-05-23T02:05:08.473Z,86.05
2018-05-23T02:06:35.519Z,86.08
2018-05-23T02:08:02.861Z,85.86
2018-05-23T02:09:30.174Z,86.09
2018-05-23T02:11:01.300Z,86.31
2018-05-23T02:12:28.586Z,86.14
2018-05-23T02:13:51.896Z,86.12
2018-05-23T02:15:23.345Z,86.31
2018-05-23T02:16:50.541Z,86.46
2018-05-23T02:18:17.789Z,86.37
2018-05-23T02:19:45.143Z,86.07
2018-05-23T02:21:08.363Z,85.61
2018-05-23T02:22:35.770Z,85.31
2018-05-23T02:24:07.231Z,85.20
2018-05-23T02:25:30.407Z,85.08
2018-05-23T02:26:57.760Z,85.67
2018-05-23T02:28:29.001Z,85.59
2018-05-23T02:29:52.290Z,85.44
2018-05-23T02:31:19.622Z,85.37
2018-05-23T02:32:50.885Z,85.50
2018-05-23T02:34:14.250Z,85.15
2018-05-23T02:35:41.537Z,84.84
2018-05-23T02:37:09.037Z,85.27
2018-05-23T02:38:40.330Z,85.37
2018-05-23T02:40:03.779Z,86.30
2018-05-23T02:41:30.948Z,86.61
2018-05-23T02:43:02.294Z,87.13
2018-05-23T02:44:25.634Z,87.61
2018-05-23T02:45:56.835Z,87.85
2018-05-23T02:47:19.893Z,87.94
2018-05-23T02:48:47.187Z,87.86
2018-05-23T02:50:14.459Z,87.46
2018-05-23T02:51:41.773Z,87.79
2018-05-23T02:53:09.235Z,86.94
2018-05-23T02:54:36.645Z,86.49
2018-05-23T02:56:03.952Z,86.53
2018-05-23T02:57:31.303Z,86.61
2018-05-23T02:58:58.669Z,86.11
2018-05-23T03:00:30.021Z,86.45
2018-05-23T03:01:53.421Z,86.74
2018-05-23T03:03:20.832Z,86.40
2018-05-23T03:04:52.011Z,86.26
2018-05-23T03:06:19.353Z,85.50
2018-05-23T03:07:46.769Z,85.45
2018-05-23T03:09:10.098Z,85.32
2018-05-23T03:10:41.554Z,85.00
2018-05-23T03:12:08.842Z,84.95
2018-05-23T03:13:32.168Z,84.91
2018-05-23T03:15:03.509Z,84.83
2018-05-23T03:16:26.839Z,84.92
2018-05-23T03:17:54.095Z,84.84
2018-05-23T03:19:21.256Z,84.61
2018-05-23T03:20:52.633Z,84.80
2018-05-23T03:23:43.178Z,84.75
2018-05-23T03:25:14.653Z,84.78
2018-05-23T03:26:41.943Z,84.75
2018-05-23T03:28:05.261Z,84.62
2018-05-23T03:29:36.693Z,84.54
2018-05-23T03:31:04.041Z,84.63
2018-05-23T03:32:31.155Z,84.53
2018-05-23T03:33:54.516Z,84.62
2018-05-23T03:35:21.851Z,84.74
2018-05-23T03:36:48.990Z,84.72
2018-05-23T03:38:20.154Z,84.82
2018-05-23T03:39:43.429Z,85.09
2018-05-23T03:41:14.644Z,85.28
2018-05-23T03:42:38.142Z,85.41
2018-05-23T03:44:09.632Z,85.56
2018-05-23T03:45:36.745Z,85.63
2018-05-23T03:47:00.281Z,85.93
2018-05-23T03:48:27.471Z,85.78
2018-05-23T03:49:58.621Z,85.72
2018-05-23T03:51:22.156Z,85.73
2018-05-23T03:52:49.447Z,85.62
2018-05-23T03:54:16.725Z,85.93
2018-05-23T03:55:48.100Z,86.18
2018-05-23T03:57:15.377Z,86.29
2018-05-23T03:58:42.654Z,85.96
2018-05-23T04:00:10.038Z,85.83
2018-05-23T04:01:37.112Z,85.65
2018-05-23T04:03:00.407Z,85.71
2018-05-23T04:04:27.683Z,85.49
2018-05-23T04:05:55.136Z,85.56
2018-05-23T04:07:22.205Z,85.60
2018-05-23T04:08:49.614Z,85.77
2018-05-23T04:10:21.023Z,85.69
2018-05-23T04:11:48.276Z,85.86
2018-05-23T04:13:15.723Z,86.03
2018-05-23T04:14:39.201Z,86.43
2018-05-23T04:16:10.602Z,86.59
2018-05-23T04:17:33.916Z,86.76
2018-05-23T04:19:01.388Z,86.81
2018-05-23T04:20:28.602Z,86.89
2018-05-23T04:21:56.022Z,86.91
2018-05-23T04:23:23.331Z,86.88
2018-05-23T04:24:50.613Z,86.98
2018-05-23T04:26:22.804Z,87.16
2018-05-23T04:27:49.038Z,86.95
2018-05-23T04:29:16.379Z,87.28
2018-05-23T04:30:39.704Z,87.31
2018-05-23T04:32:06.990Z,87.22
2018-05-23T04:33:38.287Z,87.23
2018-05-23T04:35:01.824Z,87.33
2018-05-23T04:36:29.239Z,87.27
2018-05-23T04:37:56.504Z,87.34
2018-05-23T04:39:23.761Z,87.50
2018-05-23T04:40:51.005Z,87.37
2018-05-23T04:42:18.306Z,87.06
2018-05-23T04:43:49.648Z,86.24
2018-05-23T04:45:16.991Z,86.57
2018-05-23T04:46:44.435Z,86.17
2018-05-23T04:48:11.723Z,85.99
2018-05-23T04:49:35.263Z,85.58
2018-05-23T04:51:02.709Z,85.60
2018-05-23T04:52:29.989Z,85.75
2018-05-23T04:54:01.242Z,85.47
2018-05-23T04:55:24.534Z,85.33
2018-05-23T04:56:51.950Z,85.25
2018-05-23T04:58:19.179Z,85.40
2018-05-23T04:59:46.565Z,85.64
2018-05-23T05:01:13.973Z,85.80
2018-05-23T05:02:41.349Z,85.82
2018-05-23T05:04:12.822Z,85.72
2018-05-23T05:05:36.157Z,85.29
2018-05-23T05:07:07.680Z,85.32
2018-05-23T05:08:35.033Z,85.27
2018-05-23T05:09:58.155Z,85.67
2018-05-23T05:11:25.418Z,85.90
2018-05-23T05:12:52.936Z,85.89
2018-05-23T05:14:24.217Z,85.41
2018-05-23T05:15:47.416Z,84.72
2018-05-23T05:17:14.566Z,84.50
2018-05-23T05:18:41.935Z,84.09
2018-05-23T05:20:09.433Z,84.32
2018-05-23T05:21:36.744Z,83.44
2018-05-23T05:23:04.125Z,83.90
2018-05-23T05:24:31.553Z,83.38
2018-05-23T05:25:58.839Z,83.86
2018-05-23T05:27:26.248Z,83.64
2018-05-23T05:28:53.542Z,83.38
2018-05-23T05:30:20.908Z,82.13
2018-05-23T05:31:48.401Z,80.60
2018-05-23T05:33:15.818Z,80.51
2018-05-23T05:34:42.994Z,78.09
2018-05-23T05:36:10.425Z,78.23
2018-05-23T05:37:41.873Z,78.87
2018-05-23T05:39:04.965Z,77.08
2018-05-23T05:40:32.238Z,76.44
2018-05-23T05:41:59.717Z,77.32
2018-05-23T05:43:31.091Z,78.10
2018-05-23T05:44:54.441Z,77.99
2018-05-23T05:46:25.836Z,77.56
2018-05-23T05:47:53.298Z,77.18
2018-05-23T05:49:20.810Z,77.18
2018-05-23T05:50:48.240Z,75.00
2018-05-23T05:52:15.768Z,76.21
2018-05-23T05:53:39.152Z,76.51
2018-05-23T05:55:06.426Z,74.33
2018-05-23T05:56:33.687Z,72.91
2018-05-23T05:58:01.004Z,73.35
2018-05-23T05:59:28.422Z,71.50
2018-05-23T06:00:59.728Z,73.58
2018-05-23T06:02:23.168Z,72.14
2018-05-23T06:03:50.606Z,70.82
2018-05-23T06:05:21.993Z,70.58
2018-05-23T06:06:45.291Z,70.74
2018-05-23T06:08:12.575Z,69.00
2018-05-23T06:09:40.179Z,66.74
2018-05-23T06:11:11.360Z,65.56
2018-05-23T06:12:34.764Z,63.72
2018-05-23T06:14:02.142Z,63.21
2018-05-23T06:15:29.790Z,66.18
2018-05-23T06:17:01.307Z,64.15
2018-05-23T06:18:28.789Z,65.17
2018-05-23T06:19:52.333Z,64.77
2018-05-23T06:21:19.532Z,66.09
2018-05-23T06:22:47.099Z,65.35
2018-05-23T06:24:18.487Z,63.36
2018-05-23T06:25:46.000Z,61.65
2018-05-23T06:27:09.621Z,62.79
2018-05-23T06:28:36.995Z,63.92
2018-05-23T06:30:04.441Z,64.21
2018-05-23T06:31:31.886Z,60.53
2018-05-23T06:33:03.358Z,60.21
2018-05-23T06:34:26.896Z,61.26
2018-05-23T06:35:58.445Z,62.92
2018-05-23T06:37:21.811Z,62.14
2018-05-23T06:38:49.585Z,63.20
2018-05-23T06:40:16.928Z,60.74
2018-05-23T06:41:43.922Z,61.08
2018-05-23T06:43:15.550Z,61.38
2018-05-23T06:44:39.096Z,60.03
2018-05-23T06:46:06.523Z,59.94
2018-05-23T06:47:37.962Z,58.80
2018-05-23T06:49:01.479Z,59.71
2018-05-23T06:50:28.861Z,61.35
2018-05-23T06:52:00.402Z,57.58
2018-05-23T06:53:27.832Z,58.26
2018-05-23T06:54:55.245Z,59.38
2018-05-23T06:56:18.761Z,57.92
2018-05-23T06:57:46.254Z,59.47
2018-05-23T06:59:13.755Z,60.09
2018-05-23T07:00:41.250Z,56.80
2018-05-23T07:02:12.844Z,56.10
2018-05-23T07:03:36.162Z,58.31
2018-05-23T07:05:03.467Z,57.19
2018-05-23T07:06:34.947Z,59.26
2018-05-23T07:08:02.085Z,57.77
2018-05-23T07:09:25.615Z,58.52
2018-05-23T07:10:52.999Z,58.07
2018-05-23T07:12:20.421Z,58.23
2018-05-23T07:13:51.816Z,55.13
2018-05-23T07:15:15.180Z,56.45
2018-05-23T07:16:42.652Z,56.24
2018-05-23T07:18:14.237Z,57.86
2018-05-23T07:19:41.732Z,56.93
2018-05-23T07:21:04.864Z,55.45
2018-05-23T07:22:32.338Z,54.70
2018-05-23T07:24:03.878Z,56.79
2018-05-23T07:25:27.317Z,55.65
2018-05-23T07:26:54.804Z,55.38
2018-05-23T07:28:22.284Z,54.07
2018-05-23T07:29:53.834Z,54.13
2018-05-23T07:31:17.382Z,57.17
2018-05-23T07:32:44.854Z,57.21
2018-05-23T07:34:16.354Z,55.28
2018-05-23T07:35:39.688Z,55.50
2018-05-23T07:37:10.775Z,52.67
2018-05-23T07:38:34.293Z,53.64
2018-05-23T07:40:05.817Z,54.67
2018-05-23T07:41:29.310Z,53.47
2018-05-23T07:42:56.777Z,52.02
2018-05-23T07:44:27.856Z,52.36
2018-05-23T07:45:51.025Z,50.73
2018-05-23T07:47:18.425Z,50.33
2018-05-23T07:48:49.949Z,51.47
2018-05-23T07:50:13.090Z,51.34
2018-05-23T07:51:40.470Z,50.60
2018-05-23T07:53:07.979Z,51.64
2018-05-23T07:54:35.296Z,51.04
2018-05-23T07:56:06.834Z,50.23
2018-05-23T07:57:34.288Z,50.17
2018-05-23T07:58:57.770Z,50.84
2018-05-23T08:00:25.268Z,50.52
2018-05-23T08:01:52.588Z,50.84
2018-05-23T08:03:19.831Z,50.12
2018-05-23T08:04:47.388Z,49.61
2018-05-23T08:06:19.101Z,48.49
2018-05-23T08:07:42.550Z,48.80
2018-05-23T08:09:09.773Z,49.10
2018-05-23T08:10:37.011Z,49.45
2018-05-23T08:12:08.568Z,50.22
2018-05-23T08:13:31.893Z,49.51
2018-05-23T08:15:03.415Z,49.08
2018-05-23T08:16:26.850Z,49.97
2018-05-23T08:17:54.380Z,49.04
2018-05-23T08:19:21.781Z,48.35
2018-05-23T08:20:49.367Z,51.05
2018-05-23T08:22:21.779Z,52.25
2018-05-23T08:23:48.334Z,48.77
2018-05-23T08:25:11.485Z,46.81
2018-05-23T08:26:38.982Z,49.00
2018-05-23T08:28:06.558Z,48.28
2018-05-23T08:29:34.245Z,49.81
2018-05-23T08:31:01.529Z,47.13
2018-05-23T08:32:32.950Z,47.27
2018-05-23T08:34:00.154Z,48.35
2018-05-23T08:35:23.579Z,49.44
2018-05-23T08:36:51.063Z,48.87
2018-05-23T08:38:18.516Z,46.66
2018-05-23T08:39:50.047Z,46.12
2018-05-23T08:41:13.537Z,45.97
2018-05-23T08:42:41.094Z,46.65
2018-05-23T08:44:08.086Z,47.57
2018-05-23T08:45:39.832Z,47.61
2018-05-23T08:47:02.975Z,48.03
2018-05-23T08:48:30.393Z,48.56
2018-05-23T08:49:57.989Z,46.87
2018-05-23T08:51:25.420Z,47.33
2018-05-23T08:52:52.918Z,49.30
2018-05-23T08:54:20.356Z,49.77
2018-05-23T08:55:47.738Z,48.96
2018-05-23T08:57:15.350Z,48.31
2018-05-23T08:58:42.678Z,48.19
2018-05-23T09:00:10.059Z,49.48
2018-05-23T09:01:37.708Z,48.46
2018-05-23T09:03:05.318Z,48.23
2018-05-23T09:04:32.365Z,51.00
2018-05-23T09:06:03.825Z,50.19
2018-05-23T09:07:31.382Z,50.05
2018-05-23T09:08:54.726Z,48.41
2018-05-23T09:10:22.097Z,47.88
2018-05-23T09:11:53.545Z,48.02
2018-05-23T09:13:17.126Z,47.61
2018-05-23T09:14:44.788Z,48.58
2018-05-23T09:16:12.060Z,46.58
2018-05-23T09:17:39.720Z,46.15
2018-05-23T09:19:11.257Z,46.70
2018-05-23T09:20:34.634Z,47.38
2018-05-23T09:22:06.017Z,48.53
2018-05-23T09:23:29.666Z,45.93
2018-05-23T09:25:01.202Z,48.67
2018-05-23T09:26:24.686Z,47.76
2018-05-23T09:27:52.125Z,46.72
2018-05-23T09:29:19.552Z,46.61
2018-05-23T09:30:47.309Z,46.77
2018-05-23T09:32:14.396Z,47.01
2018-05-23T09:33:41.958Z,51.60
2018-05-23T09:35:09.570Z,49.44
2018-05-23T09:36:37.050Z,49.59
2018-05-23T09:38:08.646Z,48.12
2018-05-23T09:39:31.983Z,49.03
2018-05-23T09:41:03.113Z,50.19
2018-05-23T09:42:26.641Z,48.14
2018-05-23T09:43:54.132Z,50.46
2018-05-23T09:45:21.480Z,46.36
2018-05-23T09:46:48.858Z,46.08
2018-05-23T09:48:16.546Z,43.87
2018-05-23T09:49:44.100Z,43.15
2018-05-23T09:51:11.829Z,44.13
2018-05-23T09:52:43.261Z,46.02
2018-05-23T09:54:06.710Z,46.73
2018-05-23T09:55:34.278Z,44.81
2018-05-23T09:57:01.741Z,47.47
2018-05-23T09:58:29.146Z,46.34
2018-05-23T09:59:56.526Z,49.01
2018-05-23T10:01:28.144Z,47.45
2018-05-23T10:02:51.228Z,46.38
2018-05-23T10:04:18.829Z,49.53
2018-05-23T10:05:50.555Z,47.75
2018-05-23T10:07:18.114Z,46.78
2018-05-23T10:08:41.373Z,46.74
2018-05-23T10:10:09.130Z,46.54
2018-05-23T10:11:40.544Z,46.21
2018-05-23T10:13:07.462Z,48.17
2018-05-23T10:14:31.081Z,45.68
2018-05-23T10:15:58.437Z,46.19
2018-05-23T10:17:25.722Z,45.58
2018-05-23T10:18:57.167Z,46.58
2018-05-23T10:20:24.271Z,44.63
2018-05-23T10:21:47.790Z,46.79
2018-05-23T10:23:14.505Z,45.94
2018-05-23T10:24:41.989Z,45.98
2018-05-23T10:26:08.912Z,47.02
2018-05-23T10:27:36.492Z,45.34
2018-05-23T10:29:03.949Z,46.37
2018-05-23T10:30:35.374Z,43.92
2018-05-23T10:31:58.733Z,44.14
2018-05-23T10:33:30.398Z,44.89
2018-05-23T10:34:58.284Z,44.69
2018-05-23T10:36:21.018Z,43.97
2018-05-23T10:39:15.444Z,44.13
2018-05-23T10:40:42.929Z,44.35
2018-05-23T10:42:14.438Z,42.56
2018-05-23T10:43:42.091Z,45.35
2018-05-23T10:45:05.463Z,44.38
2018-05-23T10:46:38.130Z,45.32
2018-05-23T10:48:00.721Z,44.74
2018-05-23T10:49:28.037Z,44.96
2018-05-23T10:50:59.360Z,43.54
2018-05-23T10:52:22.991Z,44.18
2018-05-23T10:53:50.336Z,45.44
2018-05-23T10:55:18.055Z,44.08
2018-05-23T10:56:45.586Z,43.95
2018-05-23T10:58:16.844Z,40.41
2018-05-23T10:59:44.456Z,41.47
2018-05-23T11:01:07.845Z,41.02
2018-05-23T11:02:35.374Z,42.03
2018-05-23T11:04:06.816Z,42.51
2018-05-23T11:05:30.552Z,42.43
2018-05-23T11:06:57.970Z,40.81
2018-05-23T11:08:29.741Z,40.62
2018-05-23T11:09:52.928Z,39.92
2018-05-23T11:11:24.268Z,40.11
2018-05-23T11:12:51.816Z,40.11
2018-05-23T11:14:15.428Z,40.26
2018-05-23T11:15:47.009Z,42.88
2018-05-23T11:17:10.504Z,43.69
2018-05-23T11:18:42.263Z,41.21
2018-05-23T11:20:05.913Z,41.46
2018-05-23T11:21:33.514Z,41.16
2018-05-23T11:23:01.098Z,42.11
2018-05-23T11:24:32.628Z,40.09
2018-05-23T11:26:00.275Z,41.37
2018-05-23T11:27:23.778Z,40.62
2018-05-23T11:28:51.267Z,39.38
2018-05-23T11:30:22.927Z,40.17
2018-05-23T11:31:46.590Z,37.43
2018-05-23T11:33:14.119Z,39.33
2018-05-23T11:34:41.852Z,38.74
2018-05-23T11:36:09.294Z,38.31
2018-05-23T11:37:36.853Z,39.45
2018-05-23T11:39:04.335Z,39.26
2018-05-23T11:40:35.847Z,38.06
2018-05-23T11:41:59.075Z,39.75
2018-05-23T11:43:26.609Z,37.93
2018-05-23T11:44:53.939Z,37.52
2018-05-23T11:46:21.593Z,38.73
2018-05-23T11:47:48.992Z,39.46
2018-05-23T11:49:20.672Z,36.84
2018-05-23T11:50:44.309Z,36.12
2018-05-23T11:52:16.015Z,37.86
2018-05-23T11:53:43.644Z,38.84
2018-05-23T11:55:07.331Z,37.05
2018-05-23T11:56:39.015Z,38.18
2018-05-23T11:58:02.630Z,38.94
2018-05-23T11:59:30.362Z,38.60
2018-05-23T12:01:01.811Z,38.19
2018-05-23T12:02:25.405Z,38.05
2018-05-23T12:03:57.119Z,37.45
2018-05-23T12:05:20.541Z,37.85
2018-05-23T12:06:48.263Z,38.05
2018-05-23T12:08:15.736Z,38.19
2018-05-23T12:09:43.404Z,38.58
2018-05-23T12:11:11.187Z,38.50
2018-05-23T12:12:38.445Z,37.45
2018-05-23T12:14:10.000Z,38.58
2018-05-23T12:15:33.725Z,37.95
2018-05-23T12:17:00.884Z,38.14
2018-05-23T12:18:28.434Z,37.87
2018-05-23T12:19:55.965Z,37.85
2018-05-23T12:21:23.560Z,39.59
2018-05-23T12:22:50.896Z,38.82
2018-05-23T12:24:18.618Z,38.08
2018-05-23T12:25:50.329Z,38.44
2018-05-23T12:27:13.669Z,38.13
2018-05-23T12:28:41.359Z,37.52
2018-05-23T12:30:08.769Z,37.72
2018-05-23T12:31:36.342Z,39.68
2018-05-23T12:33:07.911Z,37.38
2018-05-23T12:34:31.684Z,38.44
2018-05-23T12:35:59.291Z,37.57
2018-05-23T12:37:26.923Z,37.51
2018-05-23T12:38:54.548Z,37.88
2018-05-23T12:40:22.167Z,38.70
2018-05-23T12:41:49.751Z,38.99
2018-05-23T12:43:21.330Z,38.84
2018-05-23T12:44:48.758Z,37.18
2018-05-23T12:46:12.427Z,37.62
2018-05-23T12:47:40.059Z,37.44
2018-05-23T12:49:07.763Z,37.64
2018-05-23T12:50:39.462Z,39.28
2018-05-23T12:52:07.059Z,37.39
2018-05-23T12:53:30.569Z,38.60
2018-05-23T12:55:02.177Z,40.64
2018-05-23T12:56:25.901Z,40.58
2018-05-23T12:57:53.426Z,39.59
2018-05-23T12:59:20.855Z,37.42
2018-05-23T13:00:48.394Z,36.85
2018-05-23T13:02:16.217Z,38.57
2018-05-23T13:03:43.783Z,37.97
2018-05-23T13:05:11.032Z,39.99
2018-05-23T13:06:42.671Z,39.88
2018-05-23T13:08:06.210Z,40.10
2018-05-23T13:09:33.832Z,39.43
2018-05-23T13:11:01.545Z,39.73
2018-05-23T13:12:33.259Z,39.51
2018-05-23T13:13:56.268Z,38.47
2018-05-23T13:15:23.863Z,39.54
2018-05-23T13:16:55.442Z,39.43
2018-05-23T13:18:22.981Z,39.12
2018-05-23T13:19:46.191Z,39.77
2018-05-23T13:21:13.634Z,39.43
2018-05-23T13:22:41.147Z,38.89
2018-05-23T13:24:08.879Z,40.52
2018-05-23T13:25:36.493Z,40.15
2018-05-23T13:27:08.065Z,40.97
2018-05-23T13:28:35.551Z,39.80
2018-05-23T13:29:58.976Z,39.57
2018-05-23T13:31:26.705Z,40.04
2018-05-23T13:32:58.262Z,39.99
2018-05-23T13:34:21.714Z,41.78
2018-05-23T13:35:49.466Z,40.30
2018-05-23T13:37:17.040Z,43.10
2018-05-23T13:38:44.526Z,40.19
2018-05-23T13:40:16.117Z,39.34
2018-05-23T13:41:43.242Z,40.27
2018-05-23T13:43:06.881Z,39.75
2018-05-23T13:44:34.531Z,40.70
2018-05-23T13:46:02.092Z,40.20
2018-05-23T13:47:29.828Z,38.41
2018-05-23T13:49:01.266Z,39.96
2018-05-23T13:50:28.444Z,39.42
2018-05-23T13:51:51.879Z,39.91
2018-05-23T13:53:19.526Z,40.30
2018-05-23T13:54:47.197Z,40.57
2018-05-23T13:56:14.895Z,41.83
2018-05-23T13:57:42.573Z,40.76
2018-05-23T13:59:10.082Z,39.87
2018-05-23T14:00:41.694Z,40.70
2018-05-23T14:02:05.259Z,41.20
2018-05-23T14:03:32.667Z,41.61
2018-05-23T14:05:00.169Z,40.78
2018-05-23T14:06:27.346Z,41.19
2018-05-23T14:07:58.731Z,41.92
2018-05-23T14:09:22.073Z,41.61
2018-05-23T14:10:49.614Z,41.06
2018-05-23T14:12:21.321Z,41.45
2018-05-23T14:13:44.864Z,41.22
2018-05-23T14:15:12.096Z,42.65
2018-05-23T14:16:39.601Z,43.06
2018-05-23T14:18:07.210Z,42.14
2018-05-23T14:19:34.758Z,41.30
2018-05-23T14:21:06.338Z,42.97
2018-05-23T14:22:29.814Z,42.58
2018-05-23T14:23:57.087Z,40.88
2018-05-23T14:25:24.555Z,40.86
2018-05-23T14:26:52.145Z,41.95
2018-05-23T14:28:19.518Z,42.97
2018-05-23T14:29:51.063Z,42.07
2018-05-23T14:31:14.760Z,41.20
2018-05-23T14:32:42.338Z,41.85
2018-05-23T14:34:09.873Z,40.77
2018-05-23T14:35:36.895Z,41.05
2018-05-23T14:37:04.368Z,42.92
2018-05-23T14:38:31.995Z,42.70
2018-05-23T14:39:59.446Z,41.26
2018-05-23T14:41:27.000Z,41.56
2018-05-23T14:42:54.390Z,41.45
2018-05-23T14:44:25.806Z,40.43
2018-05-23T14:45:48.877Z,39.67
2018-05-23T14:47:16.658Z,39.81
2018-05-23T14:48:44.138Z,41.58
2018-05-23T14:50:11.757Z,42.79
2018-05-23T14:51:42.905Z,41.22
2018-05-23T14:53:06.453Z,41.84
2018-05-23T14:54:34.078Z,42.35
2018-05-23T14:56:01.554Z,41.57
2018-05-23T14:57:33.175Z,42.29
2018-05-23T14:59:00.891Z,42.29
2018-05-23T15:00:28.328Z,41.13
2018-05-23T15:01:55.656Z,42.77
2018-05-23T15:03:19.274Z,43.09
2018-05-23T15:04:46.908Z,41.63
2018-05-23T15:06:18.091Z,41.12
2018-05-23T15:07:45.537Z,42.66
2018-05-23T15:09:09.156Z,42.70
2018-05-23T15:10:36.711Z,43.71
2018-05-23T15:12:03.600Z,43.55
2018-05-23T15:13:35.114Z,42.65
2018-05-23T15:14:58.668Z,42.53
2018-05-23T15:16:26.075Z,42.60
2018-05-23T15:17:57.589Z,42.57
2018-05-23T15:19:24.995Z,41.76
2018-05-23T15:20:48.656Z,41.42
2018-05-23T15:22:16.174Z,42.76
2018-05-23T15:23:43.560Z,42.66
2018-05-23T15:25:10.994Z,42.64
2018-05-23T15:26:38.332Z,43.69
2018-05-23T15:28:05.282Z,43.48
2018-05-23T15:29:32.861Z,42.92
2018-05-23T15:31:00.128Z,41.21
2018-05-23T15:32:31.629Z,41.48
2018-05-23T15:33:58.973Z,41.93
2018-05-23T15:35:26.636Z,42.33
2018-05-23T15:36:49.722Z,42.00
2018-05-23T15:38:21.283Z,41.93
2018-05-23T15:39:48.552Z,41.50
2018-05-23T15:41:11.824Z,40.62
2018-05-23T15:42:39.229Z,41.90
2018-05-23T15:44:10.997Z,42.45
2018-05-23T15:45:34.561Z,42.71
2018-05-23T15:47:02.250Z,41.32
2018-05-23T15:48:29.234Z,41.35
2018-05-23T15:50:00.869Z,40.82
2018-05-23T15:51:24.308Z,41.62
2018-05-23T15:52:51.599Z,42.23
2018-05-23T15:54:22.956Z,42.27
2018-05-23T15:55:46.527Z,41.33
2018-05-23T15:57:14.252Z,41.68
2018-05-23T15:58:45.859Z,41.62
2018-05-23T16:00:09.417Z,42.37
2018-05-23T16:01:37.042Z,41.42
2018-05-23T16:03:04.525Z,41.28
2018-05-23T16:04:32.139Z,40.51
2018-05-23T16:06:03.741Z,40.31
2018-05-23T16:07:27.185Z,40.13
2018-05-23T16:08:58.853Z,40.88
2018-05-23T16:10:22.260Z,41.07
2018-05-23T16:11:54.076Z,40.18
2018-05-23T16:13:17.474Z,41.76
2018-05-23T16:14:45.222Z,40.92
2018-05-23T16:16:12.550Z,40.20
2018-05-23T16:17:40.178Z,39.38
2018-05-23T16:19:07.546Z,40.27
2018-05-23T16:20:35.120Z,41.20
2018-05-23T16:22:02.494Z,41.47
2018-05-23T16:23:34.065Z,41.28
2018-05-23T16:25:01.399Z,40.00
2018-05-23T16:26:28.913Z,40.26
2018-05-23T16:27:56.441Z,39.93
2018-05-23T16:29:19.983Z,41.02
2018-05-23T16:30:47.385Z,41.53
2018-05-23T16:32:14.559Z,39.90
2018-05-23T16:33:42.155Z,40.41
2018-05-23T16:35:09.967Z,40.35
2018-05-23T16:36:37.434Z,40.34
2018-05-23T16:38:04.603Z,41.33
2018-05-23T16:39:32.138Z,40.79
2018-05-23T16:40:59.355Z,40.92
2018-05-23T16:42:30.505Z,40.01
2018-05-23T16:43:57.982Z,40.85
2018-05-23T16:45:21.541Z,41.21
2018-05-23T16:46:49.097Z,41.88
2018-05-23T16:48:16.718Z,41.76
2018-05-23T16:49:43.603Z,42.07
2018-05-23T16:51:11.177Z,41.92
2018-05-23T16:52:42.884Z,42.11
2018-05-23T16:54:06.451Z,41.93
2018-05-23T16:55:33.865Z,41.80
2018-05-23T16:57:01.405Z,42.09
2018-05-23T16:58:28.899Z,42.24
2018-05-23T16:59:56.519Z,42.54
2018-05-23T17:01:23.958Z,42.22
2018-05-23T17:02:51.409Z,43.02
2018-05-23T17:04:18.577Z,43.41
2018-05-23T17:05:50.208Z,43.76
2018-05-23T17:07:13.852Z,43.74
2018-05-23T17:08:41.283Z,42.42
2018-05-23T17:10:12.971Z,42.73
2018-05-23T17:11:36.536Z,42.69
2018-05-23T17:13:04.013Z,42.76
2018-05-23T17:14:31.538Z,43.45
2018-05-23T17:15:58.991Z,43.79
2018-05-23T17:17:26.515Z,43.57
2018-05-23T17:18:53.715Z,44.62
2018-05-23T17:20:21.124Z,44.91
2018-05-23T17:21:48.648Z,44.85
2018-05-23T17:23:16.366Z,45.82
2018-05-23T17:24:43.326Z,45.49
2018-05-23T17:26:11.069Z,44.81
2018-05-23T17:27:38.644Z,45.17
2018-05-23T17:29:06.240Z,44.70
2018-05-23T17:30:33.510Z,44.77
2018-05-23T17:32:01.129Z,44.94
2018-05-23T17:33:32.665Z,45.24
2018-05-23T17:34:55.806Z,45.28
2018-05-23T17:36:27.385Z,45.41
2018-05-23T17:37:54.983Z,45.78
2018-05-23T17:39:18.488Z,46.13
2018-05-23T17:40:49.734Z,46.23
2018-05-23T17:42:13.088Z,45.95
2018-05-23T17:43:40.550Z,46.67
2018-05-23T17:45:07.866Z,46.47
2018-05-23T17:46:35.059Z,47.18
2018-05-23T17:48:02.445Z,46.94
2018-05-23T17:49:29.897Z,47.05
2018-05-23T17:50:57.258Z,46.98
2018-05-23T17:52:24.801Z,47.39
2018-05-23T17:53:52.287Z,47.35
2018-05-23T17:55:20.187Z,47.74
2018-05-23T17:56:47.626Z,46.57
2018-05-23T17:58:19.026Z,46.22
2018-05-23T17:59:42.770Z,46.69
2018-05-23T18:01:09.924Z,46.71
2018-05-23T18:02:41.171Z,46.41
2018-05-23T18:04:04.680Z,46.28
2018-05-23T18:05:32.097Z,46.34
2018-05-23T18:07:03.451Z,46.31
2018-05-23T18:08:30.829Z,46.55
2018-05-23T18:09:58.419Z,47.01
2018-05-23T18:11:25.843Z,47.20
2018-05-23T18:12:48.747Z,47.82
2018-05-23T18:14:20.217Z,47.81
2018-05-23T18:15:47.608Z,48.26
2018-05-23T18:17:14.944Z,48.05
2018-05-23T18:18:37.934Z,47.93
2018-05-23T18:20:05.552Z,48.28
2018-05-23T18:21:37.026Z,46.89
2018-05-23T18:23:00.399Z,46.86
2018-05-23T18:24:27.867Z,47.35
2018-05-23T18:25:59.382Z,47.23
2018-05-23T18:27:22.775Z,47.50
2018-05-23T18:28:54.445Z,47.82
2018-05-23T18:30:17.815Z,48.29
2018-05-23T18:31:45.444Z,48.37
2018-05-23T18:33:12.939Z,48.47
2018-05-23T18:34:40.017Z,48.89
2018-05-23T18:36:07.540Z,48.98
2018-05-23T18:37:35.277Z,49.39
2018-05-23T18:39:06.830Z,49.79
2018-05-23T18:40:30.326Z,50.04
2018-05-23T18:41:57.817Z,50.16
2018-05-23T18:43:29.082Z,50.34
2018-05-23T18:44:52.476Z,50.87
2018-05-23T18:46:19.933Z,51.18
2018-05-23T18:47:46.921Z,51.47